createdAt,value
2023-04-26T00:02:21.345Z,8.78
2023-04-26T00:04:56.582Z,8.87
2023-04-26T00:07:28.917Z,8.80
2023-04-26T00:09:56.267Z,8.80
2023-04-26T00:12:23.397Z,8.76
2023-04-26T00:14:50.841Z,8.86
2023-04-26T00:17:17.826Z,8.63
2023-04-26T00:19:45.335Z,8.62
2023-04-26T00:22:13.314Z,8.57
2023-04-26T00:24:42.042Z,8.61
2023-04-26T00:27:10.656Z,8.50
2023-04-26T00:29:38.164Z,8.42
2023-04-26T00:32:05.613Z,8.49
2023-04-26T00:34:34.355Z,8.42
2023-04-26T00:37:01.999Z,8.40
2023-04-26T00:39:29.764Z,8.43
2023-04-26T00:41:57.052Z,8.42
2023-04-26T00:44:24.432Z,8.39
2023-04-26T00:46:53.438Z,8.49
2023-04-26T00:49:23.797Z,8.50
2023-04-26T00:51:52.580Z,8.46
2023-04-26T00:54:21.041Z,8.45
2023-04-26T00:56:48.365Z,8.36
2023-04-26T00:59:16.021Z,8.33
2023-04-26T01:01:42.944Z,8.32
2023-04-26T01:04:10.296Z,8.37
2023-04-26T01:06:38.726Z,8.40
2023-04-26T01:09:15.545Z,8.30
2023-04-26T01:11:44.085Z,8.31
2023-04-26T01:14:11.467Z,8.46
2023-04-26T01:16:39.673Z,8.38
2023-04-26T01:19:13.997Z,8.31
2023-04-26T01:21:41.661Z,8.39
2023-04-26T01:24:13.232Z,8.37
2023-04-26T01:26:45.992Z,8.27
2023-04-26T01:29:20.681Z,8.23
2023-04-26T01:31:48.280Z,8.17
2023-04-26T01:34:15.978Z,8.18
2023-04-26T01:36:42.955Z,7.98
2023-04-26T01:39:10.583Z,7.86
2023-04-26T01:41:37.619Z,7.60
2023-04-26T01:44:04.985Z,7.50
2023-04-26T01:46:31.888Z,7.29
2023-04-26T01:48:59.230Z,7.19
2023-04-26T01:51:27.335Z,7.07
2023-04-26T01:53:54.578Z,6.99
2023-04-26T01:56:23.822Z,6.91
2023-04-26T01:58:51.370Z,6.80
2023-04-26T02:01:18.708Z,6.80
2023-04-26T02:03:46.296Z,6.70
2023-04-26T02:06:13.300Z,6.65
2023-04-26T02:08:40.810Z,6.59
2023-04-26T02:11:07.778Z,6.48
2023-04-26T02:13:35.171Z,6.34
2023-04-26T02:16:02.148Z,6.36
2023-04-26T02:18:30.011Z,6.32
2023-04-26T02:20:56.882Z,6.18
2023-04-26T02:23:24.779Z,6.16
2023-04-26T02:25:51.957Z,6.23
2023-04-26T02:28:19.138Z,6.14
2023-04-26T02:30:46.727Z,6.09
2023-04-26T02:33:14.161Z,5.99
2023-04-26T02:35:41.615Z,5.88
2023-04-26T02:38:08.906Z,5.75
2023-04-26T02:40:36.106Z,5.64
2023-04-26T02:43:03.628Z,5.60
2023-04-26T02:45:30.540Z,5.49
2023-04-26T02:47:57.909Z,5.54
2023-04-26T02:50:24.909Z,5.54
2023-04-26T02:52:52.201Z,5.49
2023-04-26T02:55:19.398Z,5.33
2023-04-26T02:57:46.790Z,5.33
2023-04-26T03:00:16.874Z,5.27
2023-04-26T03:02:44.546Z,5.23
2023-04-26T03:05:11.858Z,5.19
2023-04-26T03:07:39.314Z,5.12
2023-04-26T03:10:07.029Z,5.14
2023-04-26T03:12:34.248Z,5.07
2023-04-26T03:15:03.669Z,5.03
2023-04-26T03:17:31.089Z,5.02
2023-04-26T03:19:59.074Z,4.91
2023-04-26T03:22:27.336Z,4.87
2023-04-26T03:24:54.323Z,4.96
2023-04-26T03:27:21.747Z,4.95
2023-04-26T03:29:48.632Z,4.89
2023-04-26T03:32:16.295Z,4.97
2023-04-26T03:34:43.260Z,4.97
2023-04-26T03:37:10.576Z,4.97
2023-04-26T03:39:37.726Z,4.83
2023-04-26T03:42:05.024Z,4.90
2023-04-26T03:44:32.126Z,4.87
2023-04-26T03:46:59.676Z,4.90
2023-04-26T03:49:26.562Z,4.91
2023-04-26T03:51:53.973Z,4.93
2023-04-26T03:54:21.981Z,4.99
2023-04-26T03:56:49.120Z,5.04
2023-04-26T03:59:16.006Z,5.29
2023-04-26T04:01:43.156Z,5.43
2023-04-26T04:04:10.594Z,5.48
2023-04-26T04:06:38.502Z,5.69
2023-04-26T04:09:08.493Z,5.75
2023-04-26T04:11:35.632Z,6.01
2023-04-26T04:14:03.072Z,5.98
2023-04-26T04:16:30.499Z,6.09
2023-04-26T04:18:57.449Z,6.16
2023-04-26T04:21:24.897Z,6.16
2023-04-26T04:23:52.081Z,6.44
2023-04-26T04:26:19.402Z,6.49
2023-04-26T04:28:47.344Z,6.46
2023-04-26T04:31:15.342Z,6.52
2023-04-26T04:33:42.687Z,6.46
2023-04-26T04:36:10.094Z,6.63
2023-04-26T04:38:37.436Z,6.56
2023-04-26T04:41:04.712Z,6.68
2023-04-26T04:43:32.058Z,6.58
2023-04-26T04:45:59.428Z,6.74
2023-04-26T04:48:26.356Z,6.86
2023-04-26T04:50:53.738Z,6.82
2023-04-26T04:53:21.021Z,6.78
2023-04-26T04:55:49.354Z,6.73
2023-04-26T04:58:16.527Z,6.92
2023-04-26T05:00:45.831Z,7.15
2023-04-26T05:03:14.650Z,7.18
2023-04-26T05:05:42.032Z,7.00
2023-04-26T05:08:09.316Z,6.84
2023-04-26T05:10:36.603Z,6.98
2023-04-26T05:13:03.531Z,6.87
2023-04-26T05:15:31.323Z,6.98
2023-04-26T05:17:59.705Z,7.15
2023-04-26T05:20:27.267Z,7.33
2023-04-26T05:22:54.480Z,6.98
2023-04-26T05:25:22.689Z,6.77
2023-04-26T05:27:49.922Z,6.71
2023-04-26T05:30:17.270Z,6.72
2023-04-26T05:32:44.317Z,6.77
2023-04-26T05:35:11.645Z,6.80
2023-04-26T05:37:40.104Z,6.94
2023-04-26T05:40:08.933Z,6.98
2023-04-26T05:42:36.018Z,7.04
2023-04-26T05:45:03.596Z,7.08
2023-04-26T05:47:30.578Z,7.22
2023-04-26T05:49:58.050Z,7.26
2023-04-26T05:52:25.203Z,7.12
2023-04-26T05:54:52.549Z,7.40
2023-04-26T05:57:19.888Z,7.43
2023-04-26T05:59:47.326Z,7.56
2023-04-26T06:02:14.577Z,7.45
2023-04-26T06:04:42.185Z,7.81
2023-04-26T06:07:09.924Z,7.39
2023-04-26T06:09:37.380Z,7.39
2023-04-26T06:12:04.713Z,7.44
2023-04-26T06:14:31.940Z,7.55
2023-04-26T06:16:58.998Z,7.64
2023-04-26T06:19:26.352Z,7.93
2023-04-26T06:21:55.529Z,8.17
2023-04-26T06:24:26.190Z,8.23
2023-04-26T06:26:53.531Z,8.19
2023-04-26T06:29:21.955Z,8.01
2023-04-26T06:31:48.925Z,8.13
2023-04-26T06:34:16.473Z,7.84
2023-04-26T06:36:43.748Z,7.94
2023-04-26T06:39:11.063Z,8.49
2023-04-26T06:41:38.158Z,8.39
2023-04-26T06:44:05.569Z,8.38
2023-04-26T06:46:32.892Z,8.43
2023-04-26T06:49:01.740Z,8.60
2023-04-26T06:51:29.829Z,8.86
2023-04-26T06:53:59.173Z,8.49
2023-04-26T06:56:28.754Z,8.64
2023-04-26T06:59:13.910Z,8.60
2023-04-26T07:01:41.364Z,8.74
2023-04-26T07:04:10.828Z,8.89
2023-04-26T07:06:39.127Z,8.97
2023-04-26T07:09:06.553Z,9.30
2023-04-26T07:11:33.598Z,9.87
2023-04-26T07:14:02.148Z,10.21
2023-04-26T07:16:29.281Z,10.70
2023-04-26T07:18:58.614Z,10.48
2023-04-26T07:21:27.077Z,9.96
2023-04-26T07:23:58.221Z,10.04
2023-04-26T07:26:26.814Z,10.34
2023-04-26T07:28:54.406Z,10.61
2023-04-26T07:31:22.088Z,10.86
2023-04-26T07:33:49.680Z,10.39
2023-04-26T07:36:16.634Z,9.83
2023-04-26T07:38:44.584Z,9.42
2023-04-26T07:41:13.143Z,9.13
2023-04-26T07:43:40.425Z,9.48
2023-04-26T07:46:07.576Z,10.29
2023-04-26T07:48:34.989Z,11.13
2023-04-26T07:51:09.515Z,11.73
2023-04-26T07:53:36.988Z,10.97
2023-04-26T07:56:10.601Z,10.60
2023-04-26T07:58:39.289Z,9.61
2023-04-26T08:01:06.751Z,8.90
2023-04-26T08:03:34.468Z,9.09
2023-04-26T08:06:02.343Z,9.25
2023-04-26T08:08:29.859Z,9.21
2023-04-26T08:10:57.245Z,9.16
2023-04-26T08:13:27.032Z,9.26
2023-04-26T08:15:55.808Z,9.64
2023-04-26T08:18:23.526Z,10.08
2023-04-26T08:20:50.494Z,10.38
2023-04-26T08:23:19.729Z,10.61
2023-04-26T08:25:48.020Z,10.14
2023-04-26T08:28:16.340Z,10.01
2023-04-26T08:30:43.842Z,10.05
2023-04-26T08:33:11.262Z,10.29
2023-04-26T08:35:38.290Z,10.21
2023-04-26T08:38:05.474Z,10.71
2023-04-26T08:40:33.212Z,10.55
2023-04-26T08:43:00.627Z,9.96
2023-04-26T08:45:27.633Z,10.68
2023-04-26T08:48:01.460Z,10.98
2023-04-26T08:50:30.428Z,11.20
2023-04-26T08:52:57.628Z,10.85
2023-04-26T08:55:25.074Z,10.41
2023-04-26T08:57:52.437Z,10.13
2023-04-26T09:00:19.897Z,10.16
2023-04-26T09:02:49.476Z,10.03
2023-04-26T09:05:16.948Z,10.32
2023-04-26T09:07:48.222Z,10.53
2023-04-26T09:10:22.689Z,10.70
2023-04-26T09:12:52.999Z,10.92
2023-04-26T09:15:22.950Z,11.46
2023-04-26T09:17:52.050Z,11.37
2023-04-26T09:20:21.691Z,11.12
2023-04-26T09:22:51.210Z,11.11
2023-04-26T09:25:20.843Z,11.36
2023-04-26T09:27:48.587Z,11.90
2023-04-26T09:30:18.440Z,11.59
2023-04-26T09:32:54.912Z,10.62
2023-04-26T09:35:23.471Z,10.17
2023-04-26T09:38:11.139Z,9.78
2023-04-26T09:40:46.032Z,10.24
2023-04-26T09:43:18.390Z,10.21
2023-04-26T09:45:46.797Z,10.59
2023-04-26T09:48:23.052Z,11.09
2023-04-26T09:50:52.810Z,11.84
2023-04-26T09:53:41.388Z,12.21
2023-04-26T09:56:10.489Z,11.52
2023-04-26T09:58:39.670Z,11.51
2023-04-26T10:01:08.833Z,11.28
2023-04-26T10:03:37.243Z,10.74
2023-04-26T10:06:04.862Z,10.73
2023-04-26T10:08:33.401Z,10.70
2023-04-26T10:11:01.947Z,10.81
2023-04-26T10:13:29.618Z,10.68
2023-04-26T10:15:56.848Z,10.51
2023-04-26T10:18:24.269Z,9.96
2023-04-26T10:20:54.348Z,9.83
2023-04-26T10:23:25.606Z,10.00
2023-04-26T10:25:53.252Z,10.62
2023-04-26T10:28:49.455Z,11.41
2023-04-26T10:31:17.348Z,12.27
2023-04-26T10:33:44.715Z,11.87
2023-04-26T10:36:12.510Z,12.23
2023-04-26T10:38:59.444Z,12.22
2023-04-26T10:41:38.620Z,11.22
2023-04-26T10:44:41.671Z,11.13
2023-04-26T10:47:26.943Z,11.04
2023-04-26T10:50:11.400Z,11.77
2023-04-26T10:53:06.310Z,11.79
2023-04-26T10:55:43.320Z,11.75
2023-04-26T10:58:27.119Z,10.84
2023-04-26T11:01:07.523Z,11.14
2023-04-26T11:03:35.295Z,11.34
2023-04-26T11:06:09.930Z,11.13
2023-04-26T11:08:37.343Z,11.07
2023-04-26T11:11:05.140Z,11.24
2023-04-26T11:13:33.172Z,10.96
2023-04-26T11:16:14.719Z,11.37
2023-04-26T11:18:46.526Z,11.82
2023-04-26T11:21:18.214Z,11.95
2023-04-26T11:23:53.964Z,12.11
2023-04-26T11:26:21.325Z,11.61
2023-04-26T11:28:49.792Z,11.33
2023-04-26T11:31:19.520Z,11.39
2023-04-26T11:33:49.188Z,10.67
2023-04-26T11:36:19.845Z,11.10
2023-04-26T11:38:47.044Z,10.70
2023-04-26T11:41:17.521Z,11.02
2023-04-26T11:43:45.051Z,11.00
2023-04-26T11:46:12.568Z,11.47
2023-04-26T11:48:41.337Z,11.80
2023-04-26T11:51:08.997Z,11.93
2023-04-26T11:53:43.419Z,12.16
2023-04-26T11:56:15.636Z,12.01
2023-04-26T11:58:47.219Z,11.38
2023-04-26T12:01:26.235Z,11.16
2023-04-26T12:03:55.947Z,11.05
2023-04-26T12:06:50.759Z,11.29
2023-04-26T12:09:24.479Z,11.62
2023-04-26T12:12:02.256Z,11.60
2023-04-26T12:14:37.184Z,11.65
2023-04-26T12:17:06.478Z,11.72
2023-04-26T12:19:37.584Z,12.06
2023-04-26T12:22:06.947Z,12.17
2023-04-26T12:24:35.976Z,11.68
2023-04-26T12:27:06.706Z,11.72
2023-04-26T12:29:34.247Z,11.33
2023-04-26T12:32:02.237Z,11.04
2023-04-26T12:34:29.457Z,10.73
2023-04-26T12:36:56.855Z,10.63
2023-04-26T12:39:23.945Z,11.24
2023-04-26T12:41:51.381Z,10.89
2023-04-26T12:44:20.582Z,11.12
2023-04-26T12:46:49.765Z,11.06
2023-04-26T12:49:16.984Z,11.63
2023-04-26T12:51:44.445Z,11.58
2023-04-26T12:54:11.450Z,12.04
2023-04-26T12:56:44.091Z,12.08
2023-04-26T12:59:11.284Z,11.28
2023-04-26T13:01:38.792Z,11.68
2023-04-26T13:04:06.467Z,11.97
2023-04-26T13:06:40.875Z,12.55
2023-04-26T13:09:08.605Z,12.77
2023-04-26T13:11:36.139Z,12.42
2023-04-26T13:14:03.311Z,12.46
2023-04-26T13:16:31.177Z,11.68
2023-04-26T13:18:58.998Z,11.61
2023-04-26T13:21:26.485Z,11.16
2023-04-26T13:23:53.695Z,11.85
2023-04-26T13:26:21.265Z,11.88
2023-04-26T13:28:48.721Z,11.51
2023-04-26T13:31:17.651Z,11.31
2023-04-26T13:33:47.477Z,11.83
2023-04-26T13:36:16.400Z,12.30
2023-04-26T13:38:44.166Z,12.38
2023-04-26T13:41:11.493Z,12.14
2023-04-26T13:43:38.813Z,12.24
2023-04-26T13:46:06.626Z,12.52
2023-04-26T13:48:33.677Z,11.99
2023-04-26T13:51:01.165Z,12.28
2023-04-26T13:53:29.395Z,12.22
2023-04-26T13:55:56.780Z,12.32
2023-04-26T13:58:24.208Z,12.49
2023-04-26T14:00:52.437Z,12.40
2023-04-26T14:03:23.444Z,12.45
2023-04-26T14:05:51.388Z,12.93
2023-04-26T14:08:18.626Z,12.05
2023-04-26T14:10:45.869Z,11.92
2023-04-26T14:13:14.811Z,11.86
2023-04-26T14:15:58.771Z,11.93
2023-04-26T14:18:26.576Z,11.54
2023-04-26T14:20:53.820Z,11.33
2023-04-26T14:23:20.908Z,11.61
2023-04-26T14:25:52.580Z,11.41
2023-04-26T14:28:19.955Z,12.11
2023-04-26T14:30:47.313Z,11.81
2023-04-26T14:33:14.664Z,11.65
2023-04-26T14:35:42.187Z,11.94
2023-04-26T14:38:09.308Z,12.42
2023-04-26T14:40:37.720Z,12.09
2023-04-26T14:43:04.722Z,12.60
2023-04-26T14:45:44.024Z,11.96
2023-04-26T14:48:12.575Z,12.19
2023-04-26T14:50:40.168Z,11.29
2023-04-26T14:53:07.141Z,11.30
2023-04-26T14:55:34.648Z,11.32
2023-04-26T14:58:01.777Z,11.17
2023-04-26T15:00:30.619Z,11.16
2023-04-26T15:02:57.917Z,11.33
2023-04-26T15:05:25.254Z,11.12
2023-04-26T15:07:52.318Z,11.17
2023-04-26T15:10:19.809Z,10.97
2023-04-26T15:12:46.863Z,11.42
2023-04-26T15:15:14.433Z,11.25
2023-04-26T15:17:41.883Z,11.32
2023-04-26T15:20:09.831Z,11.28
2023-04-26T15:22:38.683Z,11.40
2023-04-26T15:25:07.441Z,11.45
2023-04-26T15:27:35.912Z,11.17
2023-04-26T15:30:04.675Z,11.11
2023-04-26T15:32:32.236Z,11.13
2023-04-26T15:34:59.634Z,11.21
2023-04-26T15:37:26.513Z,11.33
2023-04-26T15:39:53.874Z,11.58
2023-04-26T15:42:21.112Z,11.94
2023-04-26T15:44:49.137Z,11.83
2023-04-26T15:47:16.724Z,12.22
2023-04-26T15:49:44.117Z,12.40
2023-04-26T15:52:11.393Z,12.33
2023-04-26T15:54:38.878Z,11.48
2023-04-26T15:57:06.174Z,11.02
2023-04-26T15:59:33.499Z,10.90
2023-04-26T16:02:00.643Z,11.26
2023-04-26T16:04:28.569Z,11.06
2023-04-26T16:06:55.613Z,10.91
2023-04-26T16:09:25.215Z,10.78
2023-04-26T16:11:52.863Z,11.76
2023-04-26T16:14:20.109Z,13.35
2023-04-26T16:16:47.438Z,14.20
2023-04-26T16:19:16.479Z,15.89
2023-04-26T16:21:43.432Z,15.48
2023-04-26T16:24:11.743Z,13.87
2023-04-26T16:26:38.873Z,13.20
2023-04-26T16:29:06.201Z,12.50
2023-04-26T16:31:34.295Z,11.53
2023-04-26T16:34:01.771Z,10.73
2023-04-26T16:36:28.820Z,10.33
2023-04-26T16:38:56.873Z,10.15
2023-04-26T16:41:24.633Z,10.17
2023-04-26T16:43:54.263Z,10.26
2023-04-26T16:46:21.394Z,10.37
2023-04-26T16:48:48.789Z,10.71
2023-04-26T16:51:15.981Z,13.10
2023-04-26T16:53:43.384Z,13.39
2023-04-26T16:56:11.153Z,11.42
2023-04-26T16:58:38.508Z,10.63
2023-04-26T17:01:06.374Z,10.42
2023-04-26T17:03:33.881Z,10.41
2023-04-26T17:06:01.645Z,10.25
2023-04-26T17:08:29.164Z,11.23
2023-04-26T17:10:56.658Z,12.61
2023-04-26T17:13:24.288Z,11.65
2023-04-26T17:15:51.756Z,11.11
2023-04-26T17:18:19.312Z,11.33
2023-04-26T17:20:48.684Z,11.00
2023-04-26T17:23:16.693Z,10.31
2023-04-26T17:25:43.826Z,9.97
2023-04-26T17:28:11.428Z,9.69
2023-04-26T17:30:38.455Z,9.50
2023-04-26T17:33:07.629Z,9.44
2023-04-26T17:35:34.841Z,9.25
2023-04-26T17:38:02.501Z,9.26
2023-04-26T17:40:29.566Z,9.09
2023-04-26T17:42:56.934Z,9.02
2023-04-26T17:45:23.986Z,9.13
2023-04-26T17:47:51.463Z,9.08
2023-04-26T17:50:18.655Z,9.03
2023-04-26T17:52:46.078Z,8.65
2023-04-26T17:55:13.428Z,8.43
2023-04-26T17:57:41.380Z,8.39
2023-04-26T18:00:10.459Z,8.33
2023-04-26T18:02:38.444Z,8.19
2023-04-26T18:05:08.685Z,8.10
2023-04-26T18:07:36.313Z,8.00
2023-04-26T18:10:04.305Z,7.93
2023-04-26T18:12:32.157Z,7.99
2023-04-26T18:14:59.528Z,7.87
2023-04-26T18:17:27.283Z,7.75
2023-04-26T18:19:54.438Z,7.72
2023-04-26T18:22:21.698Z,7.68
2023-04-26T18:24:48.764Z,7.58
2023-04-26T18:27:16.341Z,7.55
2023-04-26T18:29:43.359Z,7.40
2023-04-26T18:32:10.807Z,7.25
2023-04-26T18:34:37.875Z,7.19
2023-04-26T18:37:06.327Z,7.30
2023-04-26T18:39:33.462Z,7.18
2023-04-26T18:42:01.335Z,6.92
2023-04-26T18:44:28.481Z,6.74
2023-04-26T18:46:55.979Z,6.67
2023-04-26T18:49:23.949Z,6.72
2023-04-26T18:51:51.421Z,6.85
2023-04-26T18:54:18.660Z,6.79
2023-04-26T18:56:46.410Z,6.73
2023-04-26T18:59:14.195Z,6.71
2023-04-26T19:01:41.794Z,6.68
2023-04-26T19:04:09.849Z,6.74
2023-04-26T19:06:37.599Z,6.71
2023-04-26T19:09:06.488Z,6.66
2023-04-26T19:11:33.829Z,6.65
2023-04-26T19:14:01.206Z,6.67
2023-04-26T19:16:28.648Z,6.64
2023-04-26T19:18:58.252Z,6.67
2023-04-26T19:21:25.818Z,6.67
2023-04-26T19:23:52.883Z,6.68
2023-04-26T19:26:20.284Z,6.78
2023-04-26T19:28:47.531Z,6.83
2023-04-26T19:31:14.926Z,6.89
2023-04-26T19:33:42.030Z,6.87
2023-04-26T19:36:10.092Z,6.82
2023-04-26T19:39:04.966Z,6.65
2023-04-26T19:41:32.554Z,6.60
2023-04-26T19:44:00.675Z,6.53
2023-04-26T19:46:28.682Z,6.30
2023-04-26T19:48:55.746Z,6.08
2023-04-26T19:51:23.364Z,5.94
2023-04-26T19:53:50.981Z,5.82
2023-04-26T19:56:20.660Z,5.77
2023-04-26T19:58:48.029Z,5.71
2023-04-26T20:01:15.490Z,5.74
2023-04-26T20:03:42.805Z,5.77
2023-04-26T20:06:11.813Z,5.83
2023-04-26T20:08:38.975Z,5.85
2023-04-26T20:11:06.226Z,5.82
2023-04-26T20:13:33.280Z,5.77
2023-04-26T20:16:00.827Z,5.79
2023-04-26T20:18:28.059Z,5.71
2023-04-26T20:20:55.371Z,5.64
2023-04-26T20:23:22.439Z,5.53
2023-04-26T20:25:50.904Z,5.49
2023-04-26T20:28:17.846Z,5.39
2023-04-26T20:30:45.197Z,5.39
2023-04-26T20:33:12.802Z,5.33
2023-04-26T20:35:40.167Z,5.33
2023-04-26T20:38:07.399Z,5.32
2023-04-26T20:40:34.645Z,5.32
2023-04-26T20:43:01.809Z,5.32
2023-04-26T20:45:29.390Z,5.32
2023-04-26T20:47:56.649Z,5.31
2023-04-26T20:50:24.144Z,5.33
2023-04-26T20:52:51.480Z,5.28
2023-04-26T20:55:19.037Z,5.36
2023-04-26T20:57:46.192Z,5.38
2023-04-26T21:00:13.837Z,5.47
2023-04-26T21:02:40.930Z,5.51
2023-04-26T21:05:08.994Z,5.50
2023-04-26T21:07:36.024Z,5.50
2023-04-26T21:10:04.327Z,5.51
2023-04-26T21:12:31.343Z,5.46
2023-04-26T21:14:59.196Z,5.39
2023-04-26T21:17:26.522Z,5.36
2023-04-26T21:19:53.853Z,5.38
2023-04-26T21:22:20.937Z,5.44
2023-04-26T21:24:51.070Z,5.36
2023-04-26T21:27:18.795Z,5.38
2023-04-26T21:29:46.072Z,5.34
2023-04-26T21:32:12.997Z,5.30
2023-04-26T21:34:40.323Z,5.16
2023-04-26T21:37:07.419Z,5.06
2023-04-26T21:39:34.966Z,4.98
2023-04-26T21:42:03.892Z,4.94
2023-04-26T21:44:31.207Z,4.82
2023-04-26T21:46:58.340Z,4.78
2023-04-26T21:49:26.121Z,5.00
2023-04-26T21:51:53.201Z,5.13
2023-04-26T21:54:20.783Z,5.12
2023-04-26T21:56:47.860Z,5.18
2023-04-26T21:59:15.471Z,5.21
2023-04-26T22:01:42.663Z,5.34
2023-04-26T22:04:10.070Z,5.39
2023-04-26T22:06:37.329Z,5.41
2023-04-26T22:09:05.140Z,5.29
2023-04-26T22:11:32.067Z,5.44
2023-04-26T22:13:59.596Z,5.36
2023-04-26T22:16:26.815Z,5.23
2023-04-26T22:18:54.046Z,5.29
2023-04-26T22:21:21.263Z,5.31
2023-04-26T22:23:48.530Z,5.21
2023-04-26T22:26:15.766Z,5.23
2023-04-26T22:28:43.075Z,5.10
2023-04-26T22:31:09.985Z,5.00
2023-04-26T22:33:37.256Z,4.98
2023-04-26T22:36:04.557Z,4.80
2023-04-26T22:38:31.975Z,4.70
2023-04-26T22:40:58.873Z,4.72
2023-04-26T22:43:26.233Z,4.68
2023-04-26T22:45:53.243Z,4.79
2023-04-26T22:48:20.559Z,4.79
2023-04-26T22:50:50.755Z,4.82
2023-04-26T22:53:18.369Z,4.86
2023-04-26T22:55:45.421Z,4.94
2023-04-26T22:58:12.936Z,5.03
2023-04-26T23:00:39.965Z,5.23
2023-04-26T23:03:07.235Z,5.32
2023-04-26T23:05:34.140Z,5.40
2023-04-26T23:08:01.354Z,5.44
2023-04-26T23:10:28.861Z,5.45
2023-04-26T23:12:56.037Z,5.49
2023-04-26T23:15:23.900Z,5.45
2023-04-26T23:17:51.167Z,5.47
2023-04-26T23:20:18.411Z,5.52
2023-04-26T23:22:45.788Z,5.60
2023-04-26T23:25:12.832Z,5.58
2023-04-26T23:27:40.323Z,5.69
2023-04-26T23:30:08.202Z,5.81
2023-04-26T23:32:35.689Z,5.81
2023-04-26T23:35:02.972Z,5.75
2023-04-26T23:37:30.352Z,5.82
2023-04-26T23:39:57.321Z,5.81
2023-04-26T23:42:24.629Z,5.83
2023-04-26T23:44:51.498Z,5.93
2023-04-26T23:47:18.933Z,6.09
2023-04-26T23:49:46.116Z,6.21
2023-04-26T23:52:13.496Z,6.29
2023-04-26T23:54:40.597Z,6.27
2023-04-26T23:57:09.266Z,6.45
2023-04-26T23:59:36.150Z,6.40
